Time;durP1;ratioP1;P1;durP2;ratioP2;P2;SDS_P1;SDS_P2;PMS_P1;PMS_P2;Temp;Humidity;BMP_temperature;BMP_pressure;BME280_temperature;BME280_humidity;BME280_pressure;Samples;Min_cycle;Max_cycle;Signal;HPM_P1;HPM_P2
2022/02/18 00:00:33;;;;;;;13.45;2.25;;;;;;;7.21;78.08;100968.31;5035549;28;20494;-71
2022/02/18 00:02:58;;;;;;;13.32;2.40;;;;;;;7.23;78.61;100960.47;5053488;28;20025;-72
2022/02/18 00:05:24;;;;;;;18.20;2.25;;;;;;;7.29;77.79;100971.88;5053697;28;20048;-72
2022/02/18 00:07:49;;;;;;;13.52;2.65;;;;;;;7.29;77.71;100974.44;5052776;28;20464;-72
2022/02/18 00:10:15;;;;;;;14.57;3.03;;;;;;;7.26;78.91;100969.63;5051103;28;20143;-72
2022/02/18 00:12:40;;;;;;;17.95;3.00;;;;;;;7.21;79.28;100977.81;5033447;28;20202;-72
2022/02/18 00:15:06;;;;;;;20.52;3.38;;;;;;;7.28;77.99;100977.97;5034071;28;20025;-73
2022/02/18 00:17:32;;;;;;;17.63;3.30;;;;;;;7.22;78.86;100963.97;5051983;28;20032;-72
2022/02/18 00:19:57;;;;;;;25.55;3.70;;;;;;;7.21;78.82;100972.66;5051912;28;20017;-73
2022/02/18 00:22:23;;;;;;;13.75;3.25;;;;;;;7.18;79.50;100973.78;5033996;28;20028;-73
2022/02/18 00:24:49;;;;;;;17.42;2.92;;;;;;;7.28;78.53;100962.53;5052160;28;20025;-73
2022/02/18 00:27:15;;;;;;;12.43;2.70;;;;;;;7.25;78.67;100955.97;5052188;28;20025;-71
2022/02/18 00:29:41;;;;;;;11.23;2.20;;;;;;;7.23;79.32;100955.31;5052198;28;20114;-71
2022/02/18 00:32:08;;;;;;;17.48;3.00;;;;;;;7.19;78.84;100948.88;5034949;28;20025;-71
2022/02/18 00:34:38;;;;;;;18.52;2.47;;;;;;;7.19;78.63;100942.00;5034737;28;20017;-72
2022/02/18 00:37:04;;;;;;;12.02;2.53;;;;;;;7.21;78.78;100952.91;5053040;28;20052;-72
2022/02/18 00:39:29;;;;;;;17.30;2.67;;;;;;;7.18;78.54;100953.22;5053042;28;20021;-72
2022/02/18 00:41:55;;;;;;;22.75;3.85;;;;;;;7.14;79.34;100951.94;5038096;28;20070;-72
2022/02/18 00:44:21;;;;;;;17.67;2.50;;;;;;;7.13;78.92;100946.94;5056525;28;20033;-72
2022/02/18 00:46:46;;;;;;;15.05;2.88;;;;;;;7.12;78.99;100950.50;5057009;28;20025;-72
2022/02/18 00:49:11;;;;;;;17.25;2.28;;;;;;;6.96;78.75;100943.56;5038807;28;20029;-72
2022/02/18 00:51:37;;;;;;;14.90;2.30;;;;;;;7.03;78.62;100952.25;5038694;28;20025;-73
2022/02/18 00:54:02;;;;;;;13.38;2.40;;;;;;;6.97;78.89;100940.84;5038846;28;20021;-72
2022/02/18 00:56:27;;;;;;;16.88;2.53;;;;;;;7.02;79.16;100942.94;5056660;28;20337;-73
2022/02/18 00:58:53;;;;;;;13.68;2.10;;;;;;;7.10;78.23;100937.78;5056554;28;20040;-73
2022/02/18 01:01:18;;;;;;;15.10;2.35;;;;;;;6.98;78.85;100932.16;5056591;28;20045;-72
2022/02/18 01:03:43;;;;;;;16.17;2.50;;;;;;;7.08;78.47;100936.34;5038491;28;20032;-72
2022/02/18 01:06:09;;;;;;;10.80;2.00;;;;;;;7.10;78.48;100934.44;5038283;28;20025;-72
2022/02/18 01:08:34;;;;;;;15.25;2.30;;;;;;;6.99;79.44;100933.78;5038472;28;20028;-72
2022/02/18 01:10:59;;;;;;;15.98;2.20;;;;;;;6.93;79.64;100923.31;5038466;28;20021;-72
2022/02/18 01:13:25;;;;;;;19.08;2.70;;;;;;;6.82;80.01;100915.94;5056631;28;20083;-71
2022/02/18 01:15:50;;;;;;;18.85;2.20;;;;;;;6.85;79.88;100915.59;5056103;28;20017;-72
2022/02/18 01:18:16;;;;;;;13.05;1.92;;;;;;;6.92;79.55;100916.59;5038387;28;20025;-72
2022/02/18 01:20:41;;;;;;;19.38;2.63;;;;;;;6.89;80.09;100909.22;5038202;28;20491;-71
2022/02/18 01:23:06;;;;;;;13.60;2.33;;;;;;;6.98;79.90;100919.31;5055829;28;20053;-72
2022/02/18 01:25:32;;;;;;;12.02;2.33;;;;;;;6.98;80.02;100908.25;5037919;28;20118;-72
2022/02/18 01:27:57;;;;;;;13.13;2.20;;;;;;;6.98;80.99;100908.25;5055762;28;20032;-72
2022/02/18 01:30:26;;;;;;;12.90;2.33;;;;;;;7.02;79.86;100901.84;5055882;28;20101;-72
2022/02/18 01:32:53;;;;;;;17.27;2.28;;;;;;;7.03;80.54;100902.63;5038720;28;20534;-73
2022/02/18 01:35:19;;;;;;;15.80;2.80;;;;;;;6.97;81.02;100904.88;5055950;28;20053;-72
2022/02/18 01:37:46;;;;;;;16.67;2.92;;;;;;;6.95;81.41;100899.09;5037786;28;20039;-72
2022/02/18 01:40:12;;;;;;;14.18;2.92;;;;;;;6.99;81.52;100897.00;5055819;28;20025;-72
2022/02/18 01:42:37;;;;;;;18.10;2.65;;;;;;;6.96;82.07;100893.00;5036956;28;20040;-73
2022/02/18 01:45:04;;;;;;;15.50;2.78;;;;;;;7.02;81.87;100901.84;5055124;28;20039;-73
2022/02/18 01:47:29;;;;;;;16.63;2.90;;;;;;;7.06;82.22;100897.97;5020665;28;20468;-73
2022/02/18 01:49:58;;;;;;;21.30;3.08;;;;;;;7.06;81.96;100897.19;5055230;28;20079;-73
2022/02/18 01:52:35;;;;;;;17.63;3.10;;;;;;;7.04;82.44;100888.81;5054496;28;20052;-72
2022/02/18 01:55:10;;;;;;;17.13;2.92;;;;;;;6.89;82.41;100863.75;5037378;28;20119;-73
2022/02/18 01:57:35;;;;;;;15.27;2.70;;;;;;;6.97;83.68;100868.91;5037685;28;20032;-71
2022/02/18 02:00:01;;;;;;;17.33;2.60;;;;;;;6.89;83.47;100866.34;5054403;28;20021;-72
2022/02/18 02:02:26;;;;;;;16.95;2.78;;;;;;;6.97;83.29;100850.13;5055330;28;20025;-72
2022/02/18 02:04:51;;;;;;;14.20;2.50;;;;;;;6.98;83.55;100849.16;5055747;28;20163;-72
2022/02/18 02:07:17;;;;;;;16.48;2.90;;;;;;;7.00;84.02;100836.94;5055433;28;20021;-72
2022/02/18 02:09:42;;;;;;;11.25;2.70;;;;;;;7.13;82.82;100832.09;5055697;28;20029;-72
2022/02/18 02:12:09;;;;;;;21.98;2.55;;;;;;;7.02;83.13;100819.63;5055907;28;20388;-72
2022/02/18 02:14:34;;;;;;;20.23;2.92;;;;;;;7.05;83.26;100803.88;5020560;28;20064;-72
2022/02/18 02:17:00;;;;;;;15.30;2.53;;;;;;;7.04;83.15;100797.09;5054370;28;20021;-72
2022/02/18 02:19:25;;;;;;;16.45;2.70;;;;;;;7.11;83.67;100777.50;5055390;28;20399;-72
2022/02/18 02:21:54;;;;;;;14.32;2.70;;;;;;;7.15;83.21;100771.06;5055158;28;20051;-72
2022/02/18 02:24:19;;;;;;;19.67;2.47;;;;;;;7.14;82.95;100756.63;5037458;28;20036;-71
2022/02/18 02:26:45;;;;;;;25.55;2.30;;;;;;;7.13;82.87;100752.44;5054574;28;20357;-72
2022/02/18 02:29:11;;;;;;;13.70;2.65;;;;;;;7.20;82.91;100757.72;5036998;28;20032;-72
2022/02/18 02:31:37;;;;;;;18.08;3.00;;;;;;;7.29;82.52;100738.75;5054830;28;20027;-72
2022/02/18 02:34:03;;;;;;;18.70;3.10;;;;;;;7.32;82.12;100751.25;5036559;28;20067;-72
2022/02/18 02:36:30;;;;;;;16.58;2.80;;;;;;;7.15;82.57;100742.78;5054075;28;20041;-72
2022/02/18 02:38:55;;;;;;;20.42;3.72;;;;;;;7.13;83.49;100738.78;5054476;28;20029;-72
2022/02/18 02:41:22;;;;;;;24.65;2.80;;;;;;;7.21;82.92;100738.75;5054554;28;20487;-72
2022/02/18 02:43:48;;;;;;;27.23;3.25;;;;;;;7.20;83.46;100737.19;5054441;28;20036;-71
2022/02/18 02:46:13;;;;;;;18.90;2.80;;;;;;;7.20;82.88;100725.13;5054421;28;20349;-71
2022/02/18 02:48:39;;;;;;;14.88;2.55;;;;;;;7.13;82.76;100703.59;5054252;28;20035;-71
2022/02/18 02:51:05;;;;;;;20.30;2.78;;;;;;;7.21;83.11;100720.78;5035779;28;20028;-72
2022/02/18 02:53:32;;;;;;;15.13;2.70;;;;;;;7.17;83.97;100715.16;5036500;28;20021;-72
2022/02/18 02:55:57;;;;;;;19.48;2.60;;;;;;;7.21;83.33;100705.34;5036661;28;20073;-72
2022/02/18 02:58:22;;;;;;;15.68;2.28;;;;;;;7.33;82.92;100698.06;5054194;28;20476;-72
2022/02/18 03:00:48;;;;;;;18.30;3.03;;;;;;;7.15;83.51;100691.41;5054285;28;20029;-71
2022/02/18 03:03:13;;;;;;;23.42;2.65;;;;;;;7.19;83.90;100686.72;5036296;28;20380;-72
2022/02/18 03:05:38;;;;;;;22.67;3.00;;;;;;;7.24;83.26;100672.41;5053905;28;20047;-73
2022/02/18 03:08:04;;;;;;;17.13;2.95;;;;;;;7.28;83.54;100674.63;5036096;28;20029;-71
2022/02/18 03:10:30;;;;;;;22.38;3.17;;;;;;;7.31;82.90;100687.16;5053787;28;20024;-72
2022/02/18 03:12:55;;;;;;;21.73;3.03;;;;;;;7.20;82.70;100673.72;5036365;28;20381;-76
2022/02/18 03:15:20;;;;;;;19.85;3.33;;;;;;;7.20;83.04;100678.06;5036670;28;20104;-76
2022/02/18 03:17:46;;;;;;;21.58;3.35;;;;;;;7.22;83.11;100665.81;5037445;28;20055;-75
2022/02/18 03:20:11;;;;;;;19.33;2.75;;;;;;;7.11;83.37;100661.06;5036267;28;20453;-76
2022/02/18 03:22:36;;;;;;;18.77;3.22;;;;;;;7.10;83.07;100649.97;5052992;28;20472;-76
2022/02/18 03:25:02;;;;;;;25.60;3.95;;;;;;;7.05;84.01;100644.56;5054003;28;20025;-76
2022/02/18 03:27:28;;;;;;;16.70;2.95;;;;;;;7.10;83.50;100641.47;5036251;28;20104;-75
2022/02/18 03:29:53;;;;;;;20.35;3.38;;;;;;;7.06;83.74;100635.88;5053880;28;20083;-75
2022/02/18 03:32:18;;;;;;;16.83;3.10;;;;;;;7.10;83.98;100637.13;5035883;28;20036;-75
2022/02/18 03:34:44;;;;;;;23.20;3.63;;;;;;;7.09;84.00;100638.09;5035989;28;20017;-75
2022/02/18 03:37:10;;;;;;;18.50;3.38;;;;;;;7.16;84.24;100643.38;5035708;28;20456;-76
2022/02/18 03:39:35;;;;;;;19.95;2.97;;;;;;;7.15;84.35;100634.06;5054250;28;20032;-76
2022/02/18 03:42:01;;;;;;;19.85;3.35;;;;;;;7.09;84.55;100627.81;5054184;28;20028;-74
2022/02/18 03:44:27;;;;;;;23.65;3.20;;;;;;;7.16;84.31;100620.22;5054530;28;20158;-76
2022/02/18 03:46:52;;;;;;;20.00;3.70;;;;;;;7.16;85.29;100615.91;5054523;28;20107;-75
2022/02/18 03:49:17;;;;;;;26.02;3.58;;;;;;;7.18;85.49;100595.19;5036332;28;20040;-76
2022/02/18 03:51:42;;;;;;;29.30;4.30;;;;;;;7.23;85.03;100601.41;5036713;28;20079;-75
2022/02/18 03:54:08;;;;;;;32.63;4.07;;;;;;;7.18;86.38;100590.03;5054730;28;20476;-75
2022/02/18 03:56:34;;;;;;;23.13;3.72;;;;;;;7.07;87.10;100575.00;5037543;28;20238;-75
2022/02/18 03:58:59;;;;;;;24.80;3.88;;;;;;;7.06;87.22;100569.06;5037688;28;20384;-75
2022/02/18 04:01:24;;;;;;;26.38;3.90;;;;;;;7.08;87.78;100563.75;5055334;28;20028;-75
2022/02/18 04:03:49;;;;;;;35.70;4.68;;;;;;;7.13;87.67;100554.56;5055312;28;20059;-75
2022/02/18 04:06:15;;;;;;;38.05;4.25;;;;;;;7.16;87.93;100531.09;5057685;28;20028;-75
2022/02/18 04:08:41;;;;;;;29.70;4.25;;;;;;;7.16;87.69;100535.44;5073332;28;20012;-75
2022/02/18 04:11:07;;;;;;;24.23;3.92;;;;;;;7.24;87.13;100525.91;5074909;28;20025;-75
2022/02/18 04:13:32;;;;;;;41.60;4.47;;;;;;;7.21;87.66;100500.53;5057944;28;20033;-75
2022/02/18 04:15:57;;;;;;;27.10;4.18;;;;;;;7.27;87.25;100477.69;5060189;28;20053;-74
2022/02/18 04:18:23;;;;;;;32.03;4.03;;;;;;;7.27;87.82;100470.78;5080719;28;20041;-75
2022/02/18 04:20:48;;;;;;;32.22;4.68;;;;;;;7.24;87.26;100448.78;5080317;28;20049;-75
2022/02/18 04:23:13;;;;;;;33.28;4.40;;;;;;;7.12;87.87;100433.97;5080267;28;20087;-76
2022/02/18 04:25:39;;;;;;;36.75;4.65;;;;;;;7.32;87.27;100440.22;5063704;28;20021;-75
2022/02/18 04:28:05;;;;;;;31.63;5.10;;;;;;;7.33;87.35;100428.97;5063358;28;20032;-74
2022/02/18 04:30:31;;;;;;;35.17;4.78;;;;;;;7.31;87.18;100425.78;5080569;28;20064;-75
2022/02/18 04:32:56;;;;;;;25.27;3.65;;;;;;;7.38;87.47;100418.97;5080870;28;20044;-76
2022/02/18 04:35:23;;;;;;;39.00;5.93;;;;;;;7.22;88.15;100427.63;5062656;28;20024;-74
2022/02/18 04:37:48;;;;;;;30.80;5.05;;;;;;;7.20;88.13;100406.44;5063178;28;20036;-76
2022/02/18 04:40:15;;;;;;;38.20;4.38;;;;;;;7.22;88.20;100412.19;5080383;28;20036;-76
2022/02/18 04:42:42;;;;;;;34.08;5.05;;;;;;;7.21;88.89;100408.00;5079975;28;20020;-77
2022/02/18 04:45:08;;;;;;;42.58;4.80;;;;;;;7.15;88.53;100393.28;5080283;28;20084;-76
2022/02/18 04:47:33;;;;;;;35.90;5.20;;;;;;;7.16;88.60;100370.97;5079524;28;20043;-76
2022/02/18 04:49:59;;;;;;;39.78;4.65;;;;;;;7.10;88.77;100376.78;5078547;28;20036;-76
2022/02/18 04:52:24;;;;;;;33.78;5.03;;;;;;;7.06;88.33;100383.25;5065121;28;20491;-75
2022/02/18 04:54:49;;;;;;;41.25;7.45;;;;;;;6.99;89.15;100380.56;5042686;28;20061;-74
2022/02/18 04:57:14;;;;;;;43.33;5.30;;;;;;;6.95;88.74;100389.59;5060436;28;20376;-75
2022/02/18 04:59:40;;;;;;;41.08;5.07;;;;;;;6.92;89.46;100369.41;5059475;28;20039;-75
2022/02/18 05:02:05;;;;;;;35.38;5.40;;;;;;;6.91;89.06;100355.75;5058729;28;20363;-75
2022/02/18 05:04:31;;;;;;;36.95;5.40;;;;;;;6.96;88.88;100338.06;5040566;28;20032;-75
2022/02/18 05:06:56;;;;;;;34.75;5.30;;;;;;;6.92;89.16;100339.38;5041916;28;20502;-75
2022/02/18 05:09:22;;;;;;;31.38;5.50;;;;;;;6.92;89.65;100346.28;5039772;28;20025;-75
2022/02/18 05:11:49;;;;;;;40.45;6.30;;;;;;;6.94;89.63;100334.06;5038158;28;20016;-75
2022/02/18 05:14:14;;;;;;;35.13;5.50;;;;;;;6.89;89.53;100324.31;5057195;28;20053;-76
2022/02/18 05:16:40;;;;;;;42.45;5.80;;;;;;;6.89;89.79;100319.16;5039002;28;20032;-75
2022/02/18 05:19:09;;;;;;;33.67;4.88;;;;;;;7.06;89.53;100321.59;5038996;28;20066;-75
2022/02/18 05:21:34;;;;;;;25.00;4.75;;;;;;;7.03;89.56;100329.66;5038868;28;20074;-74
2022/02/18 05:24:00;;;;;;;36.70;4.88;;;;;;;6.99;89.77;100317.16;5056549;28;20021;-75
2022/02/18 05:26:26;;;;;;;43.00;5.60;;;;;;;6.95;89.39;100297.91;5038502;28;20452;-75
2022/02/18 05:28:54;;;;;;;36.75;5.82;;;;;;;7.01;89.92;100288.72;5037953;28;20488;-75
2022/02/18 05:31:19;;;;;;;35.35;5.57;;;;;;;7.02;89.52;100269.78;5037668;28;20017;-75
2022/02/18 05:33:44;;;;;;;36.53;5.55;;;;;;;6.95;90.35;100253.44;5055075;28;20036;-75
2022/02/18 05:36:09;;;;;;;36.80;4.72;;;;;;;6.98;90.04;100269.31;5037891;28;20017;-74
2022/02/18 05:38:35;;;;;;;37.08;4.68;;;;;;;7.01;89.61;100248.41;5064176;28;20020;-75
2022/02/18 05:41:00;;;;;;;36.70;5.15;;;;;;;6.87;89.98;100207.28;5055871;28;20379;-75
2022/02/18 05:43:25;;;;;;;31.65;4.35;;;;;;;7.04;89.75;100208.72;5055433;28;20033;-74
2022/02/18 05:45:51;;;;;;;34.17;4.88;;;;;;;7.03;89.79;100203.78;5056134;28;20029;-75
2022/02/18 05:48:16;;;;;;;37.47;4.90;;;;;;;7.04;89.24;100198.44;5055668;28;20021;-75
2022/02/18 05:50:41;;;;;;;36.65;4.70;;;;;;;7.16;88.98;100179.03;5055652;28;20059;-75
2022/02/18 05:53:06;;;;;;;26.90;4.15;;;;;;;7.14;89.54;100175.06;5038002;28;20029;-74
2022/02/18 05:55:32;;;;;;;26.83;4.20;;;;;;;7.12;89.12;100180.38;5040325;28;20134;-75
2022/02/18 05:57:57;;;;;;;32.47;4.20;;;;;;;7.11;89.32;100165.16;5056875;28;20344;-75
2022/02/18 06:00:22;;;;;;;34.42;4.07;;;;;;;7.17;89.16;100146.44;5037866;28;20025;-75
2022/02/18 06:02:47;;;;;;;28.52;3.97;;;;;;;7.17;88.68;100138.72;5056072;28;20025;-75
2022/02/18 06:05:13;;;;;;;26.33;4.80;;;;;;;7.14;88.87;100121.09;5055559;28;20064;-75
2022/02/18 06:07:43;;;;;;;37.05;4.68;;;;;;;7.16;88.41;100119.94;5055816;28;20040;-75
2022/02/18 06:10:08;;;;;;;42.03;5.10;;;;;;;7.16;88.11;100101.97;5056003;28;20028;-76
2022/02/18 06:12:34;;;;;;;30.92;3.80;;;;;;;7.19;88.57;100100.78;5037341;28;20412;-76
2022/02/18 06:14:59;;;;;;;25.65;3.63;;;;;;;7.26;87.95;100093.16;5055564;28;20032;-75
2022/02/18 06:17:24;;;;;;;29.38;3.83;;;;;;;7.22;87.05;100064.44;5055320;28;20021;-75
2022/02/18 06:19:50;;;;;;;35.85;4.18;;;;;;;7.17;87.02;100065.00;5039420;28;20060;-75
2022/02/18 06:22:15;;;;;;;31.10;4.55;;;;;;;7.20;87.25;100062.06;5057112;28;20472;-77
2022/02/18 06:24:42;;;;;;;32.97;4.10;;;;;;;7.19;88.21;100021.94;5037931;28;20530;-76
2022/02/18 06:27:07;;;;;;;46.30;4.20;;;;;;;7.21;87.68;100011.47;5056717;28;20119;-74
2022/02/18 06:29:32;;;;;;;36.47;4.35;;;;;;;7.20;87.86;100009.88;5058943;28;20134;-74
2022/02/18 06:31:58;;;;;;;24.52;3.95;;;;;;;7.16;87.96;99991.47;5036708;28;20021;-75
2022/02/18 06:34:24;;;;;;;27.27;4.03;;;;;;;7.22;87.38;99997.63;5058518;28;20035;-75
2022/02/18 06:36:52;;;;;;;20.42;3.45;;;;;;;7.22;87.72;99997.63;5038510;28;20024;-75
2022/02/18 06:39:19;;;;;;;21.42;3.40;;;;;;;7.21;87.32;99980.63;5037565;28;20021;-75
2022/02/18 06:41:45;;;;;;;30.67;3.95;;;;;;;7.29;87.93;99966.84;5055025;28;20029;-75
2022/02/18 06:44:11;;;;;;;24.13;3.40;;;;;;;7.29;87.75;99956.56;5055054;28;20044;-75
2022/02/18 06:46:36;;;;;;;24.65;3.50;;;;;;;7.32;87.89;99945.94;5054935;28;20060;-75
2022/02/18 06:49:01;;;;;;;21.23;3.65;;;;;;;7.28;87.85;99932.66;5036912;28;20059;-75
2022/02/18 06:51:26;;;;;;;30.08;4.15;;;;;;;7.37;88.47;99934.09;5037022;28;20029;-75
2022/02/18 06:53:52;;;;;;;31.45;4.88;;;;;;;7.33;89.11;99924.38;5054564;28;20036;-75
2022/02/18 06:56:17;;;;;;;27.85;4.55;;;;;;;7.17;91.49;99925.44;5036649;28;20028;-75
2022/02/18 06:58:42;;;;;;;21.65;3.58;;;;;;;7.14;92.22;99912.97;5036858;28;20364;-75
2022/02/18 07:01:07;;;;;;;25.38;4.05;;;;;;;7.10;92.90;99922.00;5036498;28;20036;-76
2022/02/18 07:03:33;;;;;;;21.98;4.30;;;;;;;7.06;92.75;99901.03;5054452;28;20023;-75
2022/02/18 07:06:02;;;;;;;30.77;4.90;;;;;;;7.04;93.37;99882.44;5054182;28;20111;-71
2022/02/18 07:08:28;;;;;;;23.85;4.50;;;;;;;6.95;94.12;99883.56;5036247;28;20017;-72
2022/02/18 07:10:53;;;;;;;23.80;4.00;;;;;;;6.98;94.49;99898.59;5036427;28;20368;-71
2022/02/18 07:13:19;;;;;;;22.20;3.35;;;;;;;6.99;94.97;99877.06;5053777;28;20048;-71
2022/02/18 07:15:45;;;;;;;22.60;4.28;;;;;;;6.96;95.54;99856.88;5036695;28;20025;-72
2022/02/18 07:18:11;;;;;;;49.00;4.38;;;;;;;6.97;95.42;99849.00;5053945;28;20017;-70
2022/02/18 07:20:37;;;;;;;19.48;4.32;;;;;;;6.98;95.40;99842.88;5035740;28;20020;-71
2022/02/18 07:23:05;;;;;;;25.45;4.53;;;;;;;6.83;95.92;99828.53;5037449;28;20049;-71
2022/02/18 07:25:31;;;;;;;23.50;4.85;;;;;;;6.94;96.40;99833.16;5036564;28;20538;-71
2022/02/18 07:27:56;;;;;;;25.52;4.05;;;;;;;6.94;96.74;99817.75;5034227;28;20053;-71
2022/02/18 07:30:21;;;;;;;18.67;4.47;;;;;;;7.00;96.83;99814.44;5052532;28;20368;-70
2022/02/18 07:32:48;;;;;;;22.25;4.32;;;;;;;6.95;96.92;99812.41;5035163;28;20112;-75
2022/02/18 07:35:13;;;;;;;24.98;4.95;;;;;;;7.17;96.21;99820.09;5051798;28;20032;-72
2022/02/18 07:37:38;;;;;;;26.77;4.50;;;;;;;7.12;95.68;99794.16;5051593;28;20552;-71
2022/02/18 07:40:05;;;;;;;21.58;4.88;;;;;;;7.13;96.66;99759.78;5033612;28;20025;-72
2022/02/18 07:42:30;;;;;;;26.73;5.13;;;;;;;7.18;96.41;99765.16;5034184;28;20059;-71
2022/02/18 07:44:55;;;;;;;24.98;4.82;;;;;;;7.14;97.36;99774.22;5052137;28;20425;-71
2022/02/18 07:47:21;;;;;;;31.02;7.03;;;;;;;7.22;97.56;99753.50;5052518;28;20025;-70
2022/02/18 07:49:47;;;;;;;20.67;4.85;;;;;;;7.26;98.00;99756.50;5053162;28;20028;-72
2022/02/18 07:52:12;;;;;;;33.97;5.30;;;;;;;7.20;98.09;99743.41;5053034;28;20081;-70
2022/02/18 07:54:38;;;;;;;26.55;5.82;;;;;;;7.21;98.39;99757.84;5035401;28;20398;-71
2022/02/18 07:57:04;;;;;;;26.08;5.70;;;;;;;7.26;98.35;99741.09;5036935;28;20031;-75
2022/02/18 07:59:30;;;;;;;20.25;4.97;;;;;;;7.15;98.08;99703.88;5041949;28;20027;-72
2022/02/18 08:01:55;;;;;;;22.20;5.18;;;;;;;7.30;98.61;99732.00;5023111;28;20440;-70
2022/02/18 08:04:20;;;;;;;23.13;4.95;;;;;;;7.37;98.31;99717.41;5035662;28;20035;-69
2022/02/18 08:06:46;;;;;;;21.17;5.10;;;;;;;7.45;98.74;99719.78;5035463;28;20079;-72
2022/02/18 08:09:11;;;;;;;19.10;5.07;;;;;;;7.40;98.57;99710.09;5053488;28;20020;-70
2022/02/18 08:11:36;;;;;;;19.80;4.78;;;;;;;7.47;97.79;99690.34;5055015;28;20028;-71
2022/02/18 08:14:02;;;;;;;26.05;5.57;;;;;;;7.51;98.12;99705.38;5053177;28;20044;-71
2022/02/18 08:16:31;;;;;;;23.80;5.65;;;;;;;7.52;98.63;99682.06;5035812;28;20166;-72
2022/02/18 08:18:56;;;;;;;21.15;5.90;;;;;;;7.52;99.40;99674.34;5035676;28;20031;-71
2022/02/18 08:21:22;;;;;;;21.60;5.82;;;;;;;7.46;99.38;99669.97;5035870;28;20021;-71
2022/02/18 08:23:49;;;;;;;23.40;5.95;;;;;;;7.51;100.00;99671.97;5053796;28;20037;-71
2022/02/18 08:26:15;;;;;;;15.30;5.32;;;;;;;7.57;98.79;99663.50;5036702;28;20116;-70
2022/02/18 08:28:41;;;;;;;21.77;6.13;;;;;;;7.60;99.87;99656.19;5036778;28;20017;-71
2022/02/18 08:31:06;;;;;;;20.83;6.05;;;;;;;7.64;99.47;99641.16;5053427;28;20081;-71
2022/02/18 08:33:31;;;;;;;24.35;6.53;;;;;;;7.67;99.71;99646.69;5053383;28;20029;-70
2022/02/18 08:35:56;;;;;;;13.82;5.88;;;;;;;7.80;99.35;99645.94;5053262;28;20025;-71
2022/02/18 08:38:22;;;;;;;15.63;5.97;;;;;;;7.73;99.41;99624.53;5053827;28;20376;-70
2022/02/18 08:40:47;;;;;;;15.35;6.00;;;;;;;7.78;99.77;99618.81;5053706;28;20025;-69
2022/02/18 08:43:12;;;;;;;17.88;5.88;;;;;;;7.93;99.70;99621.97;5035810;28;20047;-70
2022/02/18 08:45:38;;;;;;;18.17;6.40;;;;;;;7.98;99.61;99591.31;5036379;28;20510;-71
2022/02/18 08:48:03;;;;;;;16.92;6.18;;;;;;;8.04;99.24;99575.09;5052939;28;20025;-72
2022/02/18 08:50:29;;;;;;;12.82;5.90;;;;;;;8.15;99.07;99581.41;5052673;28;20025;-73
2022/02/18 08:52:54;;;;;;;19.20;6.10;;;;;;;8.21;98.65;99587.53;5034372;28;20036;-73
2022/02/18 08:55:21;;;;;;;13.75;5.72;;;;;;;8.29;99.11;99592.47;5035079;28;20472;-74
2022/02/18 08:57:48;;;;;;;16.63;6.45;;;;;;;8.28;98.50;99560.00;5040456;28;20059;-73
2022/02/18 09:00:17;;;;;;;13.20;6.00;;;;;;;8.41;98.54;99564.38;5050976;28;20488;-75
2022/02/18 09:02:43;;;;;;;15.48;5.97;;;;;;;8.48;97.36;99553.03;5053822;28;20052;-74
2022/02/18 09:05:09;;;;;;;9.85;5.22;;;;;;;8.57;97.98;99580.19;5049215;28;20029;-72
2022/02/18 09:07:35;;;;;;;14.55;6.78;;;;;;;8.70;97.50;99569.03;5039850;28;20033;-74
2022/02/18 09:10:00;;;;;;;13.38;5.78;;;;;;;8.70;97.93;99534.75;5023110;28;20029;-75
2022/02/18 09:12:26;;;;;;;13.60;6.50;;;;;;;8.79;97.63;99534.31;5058758;28;20051;-74
2022/02/18 09:14:52;;;;;;;13.63;6.45;;;;;;;8.86;96.84;99526.56;5039596;28;20052;-75
2022/02/18 09:17:18;;;;;;;13.68;6.60;;;;;;;8.81;97.67;99527.19;5057387;28;20103;-75
2022/02/18 09:19:44;;;;;;;13.52;6.28;;;;;;;8.89;97.09;99513.28;5057812;28;20376;-73
2022/02/18 09:22:09;;;;;;;15.23;7.10;;;;;;;8.90;96.82;99501.97;5047039;28;20032;-77
2022/02/18 09:24:35;;;;;;;11.30;6.60;;;;;;;8.94;97.41;99503.13;5037538;28;20025;-75
2022/02/18 09:27:01;;;;;;;11.40;6.35;;;;;;;9.03;97.37;99475.31;5062899;28;20013;-76
2022/02/18 09:29:27;;;;;;;13.25;6.75;;;;;;;9.13;97.16;99487.75;5061413;28;20040;-76
2022/02/18 09:31:53;;;;;;;20.70;6.72;;;;;;;9.15;97.11;99478.00;5054244;28;20029;-73
2022/02/18 09:34:19;;;;;;;12.75;5.97;;;;;;;9.19;97.07;99474.03;5057252;28;20021;-75
2022/02/18 09:36:44;;;;;;;13.15;6.28;;;;;;;9.28;97.38;99480.50;5041537;28;20032;-74
2022/02/18 09:39:09;;;;;;;15.20;6.07;;;;;;;9.24;97.27;99456.94;5039806;28;20036;-74
2022/02/18 09:41:35;;;;;;;10.55;6.35;;;;;;;9.31;97.47;99446.56;5025722;28;20035;-72
2022/02/18 09:44:01;;;;;;;14.32;6.38;;;;;;;9.32;97.17;99430.13;5040199;28;20059;-74
2022/02/18 09:46:28;;;;;;;17.17;5.45;;;;;;;9.76;95.47;99423.16;5056787;28;20032;-73
2022/02/18 09:48:55;;;;;;;15.02;5.85;;;;;;;9.52;96.04;99421.41;5038805;28;20024;-73
2022/02/18 09:51:20;;;;;;;10.07;5.22;;;;;;;9.42;96.81;99401.25;5055778;28;20020;-73
2022/02/18 09:53:48;;;;;;;14.60;6.18;;;;;;;9.53;97.98;99398.00;5041146;28;20032;-78
2022/02/18 09:56:18;;;;;;;10.45;5.03;;;;;;;9.54;97.58;99403.94;5055253;28;20448;-74
2022/02/18 09:58:43;;;;;;;16.20;5.60;;;;;;;9.58;97.59;99411.03;5039098;28;20021;-73
2022/02/18 10:01:11;;;;;;;9.88;5.53;;;;;;;9.57;97.46;99378.50;5038272;28;20040;-75
2022/02/18 10:03:38;;;;;;;9.85;5.10;;;;;;;9.70;97.31;99388.69;5037782;28;20021;-76
2022/02/18 10:06:03;;;;;;;9.05;5.00;;;;;;;9.80;96.91;99375.28;5055481;28;20067;-75
2022/02/18 10:08:29;;;;;;;15.48;4.90;;;;;;;9.81;96.74;99369.13;5062509;28;20033;-75
2022/02/18 10:11:03;;;;;;;10.80;4.50;;;;;;;9.80;97.02;99364.94;5054442;28;20075;-75
2022/02/18 10:13:29;;;;;;;11.48;4.60;;;;;;;9.88;96.80;99358.72;5052961;28;20526;-76
2022/02/18 10:15:57;;;;;;;10.93;4.63;;;;;;;9.87;97.33;99352.78;5057887;28;20025;-74
2022/02/18 10:18:23;;;;;;;9.60;4.65;;;;;;;9.97;97.73;99338.56;5035900;28;20028;-75
2022/02/18 10:20:49;;;;;;;8.23;3.83;;;;;;;9.95;97.77;99338.78;5034536;28;20056;-75
2022/02/18 10:23:18;;;;;;;9.68;4.25;;;;;;;10.03;97.72;99322.19;5052036;28;20044;-75
2022/02/18 10:25:45;;;;;;;7.95;4.07;;;;;;;10.01;98.04;99316.47;5033639;28;20027;-75
2022/02/18 10:28:12;;;;;;;5.93;3.97;;;;;;;10.07;98.10;99305.25;5033379;28;20023;-75
2022/02/18 10:30:38;;;;;;;7.38;4.20;;;;;;;10.11;97.98;99327.84;5051430;28;20053;-74
2022/02/18 10:33:21;;;;;;;6.40;3.70;;;;;;;10.15;98.20;99320.44;5033693;28;20076;-75
2022/02/18 10:35:49;;;;;;;6.45;3.58;;;;;;;10.23;97.88;99309.81;5033167;28;20095;-74
2022/02/18 10:38:16;;;;;;;5.18;3.70;;;;;;;10.27;97.50;99292.91;5033944;28;20021;-76
2022/02/18 10:40:49;;;;;;;6.60;3.97;;;;;;;10.34;97.47;99298.75;5035923;28;20025;-75
2022/02/18 10:43:18;;;;;;;7.00;2.97;;;;;;;10.42;96.64;99289.91;5034430;28;20039;-76
2022/02/18 10:46:04;;;;;;;5.38;3.10;;;;;;;10.41;96.77;99287.53;5018131;28;20036;-75
2022/02/18 10:48:49;;;;;;;5.03;3.05;;;;;;;10.56;96.36;99275.00;5035269;28;20028;-76
2022/02/18 10:51:19;;;;;;;5.10;2.65;;;;;;;10.55;95.69;99269.03;5053204;28;20024;-75
2022/02/18 10:53:47;;;;;;;4.57;2.50;;;;;;;10.51;95.75;99251.66;5053309;28;20056;-77
2022/02/18 10:56:15;;;;;;;3.75;2.90;;;;;;;10.64;95.36;99246.25;5035353;28;20017;-75
2022/02/18 10:59:00;;;;;;;6.43;2.40;;;;;;;10.72;94.89;99247.72;5054301;28;20028;-77
2022/02/18 11:01:27;;;;;;;5.45;2.40;;;;;;;10.74;93.96;99230.19;5054805;28;20027;-77
2022/02/18 11:03:58;;;;;;;3.22;2.03;;;;;;;10.78;93.60;99215.81;5055073;28;20472;-76
2022/02/18 11:06:28;;;;;;;5.85;2.10;;;;;;;10.80;94.08;99204.22;5036401;28;20025;-77
2022/02/18 11:08:56;;;;;;;6.47;2.10;;;;;;;10.78;94.35;99208.06;5036222;28;20029;-76
2022/02/18 11:11:26;;;;;;;4.07;2.00;;;;;;;10.76;94.17;99200.53;5036005;28;20029;-75
2022/02/18 11:13:54;;;;;;;3.20;2.15;;;;;;;10.91;93.84;99201.88;5032829;28;20384;-77
2022/02/18 11:16:21;;;;;;;3.92;2.00;;;;;;;11.05;92.59;99182.53;5032951;28;20124;-76
2022/02/18 11:18:47;;;;;;;3.88;1.60;;;;;;;11.05;91.60;99198.03;5032875;28;20057;-77
2022/02/18 11:21:14;;;;;;;4.53;1.70;;;;;;;11.13;90.92;99169.22;5034383;28;20100;-74
2022/02/18 11:23:43;;;;;;;3.15;1.50;;;;;;;11.15;90.53;99167.19;5032965;28;20026;-76